MDT,Max TemperatureF,Mean TemperatureF,Min TemperatureF,Max Dew PointF,MeanDew PointF,Min DewpointF,Max Humidity, Mean Humidity, Min Humidity, Max Sea Level PressureIn, Mean Sea Level PressureIn, Min Sea Level PressureIn, Max VisibilityMiles, Mean VisibilityMiles, Min VisibilityMiles, Max Wind SpeedMPH, Mean Wind SpeedMPH, Max Gust SpeedMPH,PrecipitationIn, CloudCover, Events, WindDirDegrees
2013-4-1,58,41,24,30,25,20,81,56,30,30.03,29.97,29.92,10,10,10,15,4,20,0.00,0,,293
2013-4-2,57,42,26,34,30,26,92,64,35,30.10,30.06,30.01,10,10,10,13,4,17,0.00,0,,290
2013-4-3,54,42,29,33,31,26,92,69,45,30.17,30.12,30.08,10,10,10,10,2,13,T,3,,181
2013-4-4,53,43,32,39,33,28,92,71,50,30.09,29.96,29.86,10,10,10,22,2,26,T,5,Rain,182
2013-4-5,49,42,34,38,35,31,100,77,53,29.98,29.93,29.86,10,8,0,17,4,23,0.16,7,Fog-Rain,172
2013-4-6,46,40,34,37,35,33,92,81,70,29.97,29.92,29.85,10,9,2,22,5,25,0.38,7,Rain,156
2013-4-7,41,36,31,34,31,24,100,83,65,29.86,29.72,29.65,10,5,1,22,5,30,0.67,8,Rain-Snow,184
2013-4-8,41,34,27,25,22,20,78,61,44,30.03,29.84,29.70,10,10,10,22,11,32,0.00,4,,338
2013-4-9,48,38,27,23,19,14,64,45,26,30.23,30.15,30.05,10,10,10,18,11,26,0.00,0,,344
2013-4-10,48,39,29,37,28,22,85,65,45,30.22,30.12,29.97,10,10,8,14,4,16,0.02,6,Rain,241
2013-4-11,51,39,26,26,23,13,78,54,29,30.10,30.05,30.00,10,10,10,16,6,22,0.00,0,,310
2013-4-12,51,37,23,28,20,15,75,50,24,30.06,29.94,29.68,10,10,10,21,8,26,T,3,,169
2013-4-13,44,35,25,32,18,5,82,54,25,29.89,29.69,29.57,10,9,2,23,8,39,0.04,6,Rain-Snow,274
2013-4-14,39,31,22,25,19,11,78,57,35,29.91,29.83,29.72,10,9,2,14,4,18,0.01,5,Snow,299
2013-4-15,37,30,22,28,24,19,88,74,59,29.86,29.76,29.70,10,7,1,14,6,20,0.02,8,Snow,327
2013-4-16,40,32,24,18,13,9,63,45,27,30.17,30.01,29.85,10,10,10,23,13,30,0.00,1,,348
2013-4-17,42,31,20,13,8,3,62,41,20,30.35,30.26,30.17,10,10,10,18,8,24,0.00,0,,345
2013-4-18,47,32,17,25,16,9,68,51,33,30.38,30.33,30.26,10,10,10,14,2,17,0.00,4,,303
2013-4-19,42,37,32,37,33,25,92,76,59,30.23,30.07,29.98,10,5,0,13,2,32,0.58,8,Fog-Rain-Snow,311
2013-4-20,48,39,30,36,32,26,100,71,42,30.15,30.09,30.02,10,9,2,14,3,17,0.02,6,Rain,247
2013-4-21,50,40,29,32,27,23,92,64,36,30.15,30.07,30.01,10,9,3,23,5,29,0.02,6,Rain-Snow,246
2013-4-22,42,35,27,30,20,13,92,63,33,30.36,30.20,30.04,10,9,2,21,11,28,T,3,Snow,335
2013-4-23,48,34,19,17,13,3,68,44,19,30.35,30.26,30.17,10,10,10,7,5,9,0.00,1,,335
2013-4-24,56,39,22,23,16,10,74,46,18,30.31,30.21,30.10,10,10,10,17,4,22,0.00,0,,289
2013-4-25,61,43,25,26,22,19,81,51,21,30.09,30.04,29.99,10,10,10,15,4,21,0.00,0,,303
2013-4-26,66,47,27,32,28,25,85,55,25,30.23,30.19,30.12,10,10,8,14,3,25,0.00,0,,311
2013-4-27,66,49,31,35,28,19,85,52,18,30.25,30.17,30.03,10,10,10,16,4,20,0.00,1,,223
2013-4-28,59,50,41,33,27,20,65,45,24,30.06,30.02,29.98,10,10,10,18,6,25,0.00,4,,231
2013-4-29,52,42,31,34,23,7,73,46,19,29.96,29.86,29.79,10,10,10,31,11,44,T,6,Rain,237
2013-4-30,41,32,22,20,16,10,81,61,40,30.30,30.06,29.90,10,10,9,23,8,30,T,3,Snow,343